Time;durP1;ratioP1;P1;durP2;ratioP2;P2;SDS_P1;SDS_P2;PMS_P1;PMS_P2;Temp;Humidity;BMP_temperature;BMP_pressure;BME280_temperature;BME280_humidity;BME280_pressure;Samples;Min_cycle;Max_cycle;Signal;HPM_P1;HPM_P2
2024/01/22 00:00:14;;;;;;;;;;;;;;;;;;2096617;28;19912;-83
2024/01/22 00:01:34;;;;;;;;;;;;;;;;;;2090434;28;20515;-81
2024/01/22 00:02:55;;;;;;;;;;;;;;;;;;2087462;28;19951;-81
2024/01/22 00:04:16;;;;;;;;;;;;;;;;;;2088033;28;19928;-85
2024/01/22 00:05:36;;;;;;;;;;;;;;;;;;2090813;28;19916;-81
2024/01/22 00:06:57;;;;;;;;;;;;;;;;;;2097035;28;19920;-83
2024/01/22 00:08:19;;;;;;;;;;;;;;;;;;2092378;28;19916;-82
2024/01/22 00:09:40;;;;;;;;;;;;;;;;;;2098349;28;19913;-82
2024/01/22 00:11:01;;;;;;;;;;;;;;;;;;2092667;28;19985;-80
2024/01/22 00:12:21;;;;;;;;;;;;;;;;;;2098142;28;20390;-81
2024/01/22 00:13:42;;;;;;;;;;;;;;;;;;2089770;28;19916;-81
2024/01/22 00:15:03;;;;;;;;;;;;;;;;;;2098241;28;19912;-83
2024/01/22 00:16:24;;;;;;;;;;;;;;;;;;2101951;28;19961;-83
2024/01/22 00:17:44;;;;;;;;;;;;;;;;;;2089703;28;20352;-81
2024/01/22 00:19:05;;;;;;;;;;;;;;;;;;2096123;28;19924;-82
2024/01/22 00:20:26;;;;;;;;;;;;;;;;;;2100205;28;19915;-82
2024/01/22 00:21:46;;;;;;;;;;;;;;;;;;2092452;28;22214;-84
2024/01/22 00:23:07;;;;;;;;;;;;;;;;;;2098314;28;19989;-80
2024/01/22 00:24:28;;;;;;;;;;;;;;;;;;2100209;28;19920;-81
2024/01/22 00:25:49;;;;;;;;;;;;;;;;;;2090566;28;19920;-80
2024/01/22 00:27:09;;;;;;;;;;;;;;;;;;2099580;28;19970;-81
2024/01/22 00:28:30;;;;;;;;;;;;;;;;;;2092653;28;19920;-82
2024/01/22 00:29:51;;;;;;;;;;;;;;;;;;2095683;28;19968;-83
2024/01/22 00:31:11;;;;;;;;;;;;;;;;;;2089274;28;20312;-82
2024/01/22 00:32:32;;;;;;;;;;;;;;;;;;2088284;28;19921;-82
2024/01/22 00:33:53;;;;;;;;;;;;;;;;;;2091326;28;19928;-82
2024/01/22 00:35:13;;;;;;;;;;;;;;;;;;2091477;28;20205;-81
2024/01/22 00:36:34;;;;;;;;;;;;;;;;;;2096301;28;19912;-81
2024/01/22 00:37:55;;;;;;;;;;;;;;;;;;2090004;28;20624;-80
2024/01/22 00:39:15;;;;;;;;;;;;;;;;;;2090405;28;19951;-82
2024/01/22 00:40:36;;;;;;;;;;;;;;;;;;2091071;28;19921;-83
2024/01/22 00:41:57;;;;;;;;;;;;;;;;;;2090282;28;20293;-83
2024/01/22 00:43:18;;;;;;;;;;;;;;;;;;2092059;28;19924;-83
2024/01/22 00:44:39;;;;;;;;;;;;;;;;;;2092577;28;20390;-83
2024/01/22 00:46:02;;;;;;;;;;;;;;;;;;2092106;28;20389;-82
2024/01/22 00:47:23;;;;;;;;;;;;;;;;;;2093008;28;19912;-82
2024/01/22 00:48:44;;;;;;;;;;;;;;;;;;2096570;28;19970;-82
2024/01/22 00:50:04;;;;;;;;;;;;;;;;;;2092013;28;20309;-82
2024/01/22 00:51:25;;;;;;;;;;;;;;;;;;2087548;28;19967;-82
2024/01/22 00:52:46;;;;;;;;;;;;;;;;;;2094953;28;19920;-81
2024/01/22 00:54:06;;;;;;;;;;;;;;;;;;2089810;28;20376;-81
2024/01/22 00:55:27;;;;;;;;;;;;;;;;;;2088362;28;19978;-79
2024/01/22 00:56:48;;;;;;;;;;;;;;;;;;2097310;28;19989;-81
2024/01/22 00:58:09;;;;;;;;;;;;;;;;;;2088224;28;19978;-81
2024/01/22 00:59:29;;;;;;;;;;;;;;;;;;2097160;28;20353;-83
2024/01/22 01:00:50;;;;;;;;;;;;;;;;;;2103017;28;19920;-84
2024/01/22 01:02:11;;;;;;;;;;;;;;;;;;2102828;28;19973;-84
2024/01/22 01:03:31;;;;;;;;;;;;;;;;;;2090599;28;19944;-83
2024/01/22 01:04:52;;;;;;;;;;;;;;;;;;2097502;28;19920;-83
2024/01/22 01:06:13;;;;;;;;;;;;;;;;;;2090910;28;19921;-83
2024/01/22 01:07:34;;;;;;;;;;;;;;;;;;2099266;28;19927;-83
2024/01/22 01:08:55;;;;;;;;;;;;;;;;;;2093565;28;19920;-82
2024/01/22 01:10:16;;;;;;;;;;;;;;;;;;2099426;28;20187;-82
2024/01/22 01:11:37;;;;;;;;;;;;;;;;;;2089283;28;19921;-84
2024/01/22 01:12:57;;;;;;;;;;;;;;;;;;2100436;28;19921;-84
2024/01/22 01:14:18;;;;;;;;;;;;;;;;;;2101304;28;19920;-82
2024/01/22 01:15:39;;;;;;;;;;;;;;;;;;2091649;28;20089;-83
2024/01/22 01:16:59;;;;;;;;;;;;;;;;;;2089779;28;20502;-84
2024/01/22 01:18:20;;;;;;;;;;;;;;;;;;2095327;28;19921;-80
2024/01/22 01:19:41;;;;;;;;;;;;;;;;;;2098121;28;19920;-85
2024/01/22 01:21:01;;;;;;;;;;;;;;;;;;2094964;28;19920;-80
2024/01/22 01:22:22;;;;;;;;;;;;;;;;;;2088879;28;19920;-80
2024/01/22 01:23:43;;;;;;;;;;;;;;;;;;2091314;28;19928;-83
2024/01/22 01:25:03;;;;;;;;;;;;;;;;;;2097579;28;20341;-83
2024/01/22 01:26:24;;;;;;;;;;;;;;;;;;2092706;28;19939;-83
2024/01/22 01:27:45;;;;;;;;;;;;;;;;;;2088951;28;20051;-83
2024/01/22 01:29:05;;;;;;;;;;;;;;;;;;2090798;28;20372;-85
2024/01/22 01:30:26;;;;;;;;;;;;;;;;;;2089065;28;19994;-84
2024/01/22 01:31:47;;;;;;;;;;;;;;;;;;2092414;28;20005;-83
2024/01/22 01:33:08;;;;;;;;;;;;;;;;;;2089395;28;20446;-84
2024/01/22 01:34:28;;;;;;;;;;;;;;;;;;2094291;28;19935;-84
2024/01/22 01:35:49;;;;;;;;;;;;;;;;;;2096498;28;19908;-83
2024/01/22 01:37:10;;;;;;;;;;;;;;;;;;2097715;28;19909;-83
2024/01/22 01:38:30;;;;;;;;;;;;;;;;;;2094546;28;19908;-85
2024/01/22 01:39:51;;;;;;;;;;;;;;;;;;2091570;28;20415;-84
2024/01/22 01:41:12;;;;;;;;;;;;;;;;;;2100840;28;19908;-85
2024/01/22 01:42:32;;;;;;;;;;;;;;;;;;2099586;28;19912;-84
2024/01/22 01:43:53;;;;;;;;;;;;;;;;;;2097296;28;20318;-85
2024/01/22 01:45:14;;;;;;;;;;;;;;;;;;2093312;28;20352;-84
2024/01/22 01:46:34;;;;;;;;;;;;;;;;;;2097310;28;20354;-86
2024/01/22 01:47:55;;;;;;;;;;;;;;;;;;2103975;28;20291;-81
2024/01/22 01:49:18;;;;;;;;;;;;;;;;;;2095466;28;19979;-84
2024/01/22 01:50:39;;;;;;;;;;;;;;;;;;2102269;28;19908;-82
2024/01/22 01:51:59;;;;;;;;;;;;;;;;;;2106622;28;19969;-83
2024/01/22 01:53:21;;;;;;;;;;;;;;;;;;2095930;28;19916;-81
2024/01/22 01:54:42;;;;;;;;;;;;;;;;;;2094679;28;19935;-83
2024/01/22 01:56:03;;;;;;;;;;;;;;;;;;2094663;28;19912;-84
2024/01/22 01:57:24;;;;;;;;;;;;;;;;;;2089016;28;19909;-83
2024/01/22 01:58:45;;;;;;;;;;;;;;;;;;2097513;28;19909;-83
2024/01/22 02:00:05;;;;;;;;;;;;;;;;;;2094485;28;19912;-83
2024/01/22 02:01:26;;;;;;;;;;;;;;;;;;2101600;28;19908;-84
2024/01/22 02:02:47;;;;;;;;;;;;;;;;;;2096049;28;19913;-85
2024/01/22 02:04:07;;;;;;;;;;;;;;;;;;2094267;28;19912;-85
2024/01/22 02:05:28;;;;;;;;;;;;;;;;;;2091547;28;19913;-84
2024/01/22 02:06:49;;;;;;;;;;;;;;;;;;2089467;28;19908;-85
2024/01/22 02:08:10;;;;;;;;;;;;;;;;;;2092156;28;20458;-86
2024/01/22 02:09:30;;;;;;;;;;;;;;;;;;2086944;28;19912;-82
2024/01/22 02:10:51;;;;;;;;;;;;;;;;;;2090006;28;19924;-85
2024/01/22 02:12:12;;;;;;;;;;;;;;;;;;2092856;28;19909;-82
2024/01/22 02:13:32;;;;;;;;;;;;;;;;;;2095788;28;19927;-82
2024/01/22 02:14:53;;;;;;;;;;;;;;;;;;2094724;28;20002;-83
2024/01/22 02:16:14;;;;;;;;;;;;;;;;;;2094073;28;20276;-84
2024/01/22 02:17:34;;;;;;;;;;;;;;;;;;2097816;28;19924;-83
2024/01/22 02:18:55;;;;;;;;;;;;;;;;;;2094572;28;20273;-83
2024/01/22 02:20:16;;;;;;;;;;;;;;;;;;2094284;28;19912;-83
2024/01/22 02:21:36;;;;;;;;;;;;;;;;;;2096084;28;20257;-83
2024/01/22 02:22:57;;;;;;;;;;;;;;;;;;2095496;28;19925;-82
2024/01/22 02:24:18;;;;;;;;;;;;;;;;;;2091186;28;19975;-85
2024/01/22 02:25:38;;;;;;;;;;;;;;;;;;2094019;28;19935;-83
2024/01/22 02:26:59;;;;;;;;;;;;;;;;;;2097505;28;19913;-84
2024/01/22 02:28:20;;;;;;;;;;;;;;;;;;2097467;28;20233;-85
2024/01/22 02:29:40;;;;;;;;;;;;;;;;;;2087683;28;19916;-83
2024/01/22 02:31:02;;;;;;;;;;;;;;;;;;2089002;28;19908;-82
2024/01/22 02:32:23;;;;;;;;;;;;;;;;;;2093948;28;19919;-84
2024/01/22 02:33:44;;;;;;;;;;;;;;;;;;2096120;28;19924;-83
2024/01/22 02:35:04;;;;;;;;;;;;;;;;;;2093999;28;19908;-83
2024/01/22 02:36:25;;;;;;;;;;;;;;;;;;2093543;28;19909;-84
2024/01/22 02:37:46;;;;;;;;;;;;;;;;;;2094588;28;20287;-83
2024/01/22 02:39:06;;;;;;;;;;;;;;;;;;2092970;28;19915;-85
2024/01/22 02:40:27;;;;;;;;;;;;;;;;;;2096381;28;20439;-82
2024/01/22 02:41:48;;;;;;;;;;;;;;;;;;2092181;28;19909;-83
2024/01/22 02:43:08;;;;;;;;;;;;;;;;;;2093400;28;19924;-82
2024/01/22 02:44:29;;;;;;;;;;;;;;;;;;2095310;28;20539;-82
2024/01/22 02:45:50;;;;;;;;;;;;;;;;;;2097476;28;20360;-85
2024/01/22 02:47:10;;;;;;;;;;;;;;;;;;2087276;28;19908;-84
2024/01/22 02:48:31;;;;;;;;;;;;;;;;;;2095377;28;20335;-83
2024/01/22 02:49:52;;;;;;;;;;;;;;;;;;2099335;28;19913;-84
2024/01/22 02:51:12;;;;;;;;;;;;;;;;;;2094283;28;19913;-83
2024/01/22 02:52:33;;;;;;;;;;;;;;;;;;2090574;28;19954;-81
2024/01/22 02:53:54;;;;;;;;;;;;;;;;;;2091907;28;19929;-80
2024/01/22 02:55:15;;;;;;;;;;;;;;;;;;2091727;28;19919;-82
2024/01/22 02:56:35;;;;;;;;;;;;;;;;;;2088667;28;19986;-83
2024/01/22 02:57:56;;;;;;;;;;;;;;;;;;2090104;28;19924;-82
2024/01/22 02:59:18;;;;;;;;;;;;;;;;;;2089454;28;19913;-83
2024/01/22 03:00:39;;;;;;;;;;;;;;;;;;2091831;28;19921;-83
2024/01/22 03:02:00;;;;;;;;;;;;;;;;;;2091084;28;19912;-84
2024/01/22 03:03:20;;;;;;;;;;;;;;;;;;2091496;28;19924;-83
2024/01/22 03:04:41;;;;;;;;;;;;;;;;;;2090744;28;20274;-84
2024/01/22 03:06:02;;;;;;;;;;;;;;;;;;2093984;28;19916;-84
2024/01/22 03:07:23;;;;;;;;;;;;;;;;;;2092006;28;19920;-84
2024/01/22 03:08:43;;;;;;;;;;;;;;;;;;2091643;28;19920;-83
2024/01/22 03:10:04;;;;;;;;;;;;;;;;;;2096887;28;20334;-83
2024/01/22 03:11:25;;;;;;;;;;;;;;;;;;2090485;28;20427;-85
2024/01/22 03:12:45;;;;;;;;;;;;;;;;;;2088314;28;19920;-82
2024/01/22 03:14:06;;;;;;;;;;;;;;;;;;2088328;28;19921;-82
2024/01/22 03:15:27;;;;;;;;;;;;;;;;;;2099140;28;19931;-84
2024/01/22 03:16:48;;;;;;;;;;;;;;;;;;2101747;28;19934;-85
2024/01/22 03:18:08;;;;;;;;;;;;;;;;;;2098282;28;20016;-83
2024/01/22 03:19:29;;;;;;;;;;;;;;;;;;2091627;28;19928;-84
2024/01/22 03:20:50;;;;;;;;;;;;;;;;;;2089469;28;19979;-85
2024/01/22 03:22:10;;;;;;;;;;;;;;;;;;2089323;28;19994;-84
2024/01/22 03:23:31;;;;;;;;;;;;;;;;;;2087617;28;20545;-85
2024/01/22 03:24:52;;;;;;;;;;;;;;;;;;2088312;28;19921;-83
2024/01/22 03:26:12;;;;;;;;;;;;;;;;;;2091765;28;19917;-83
2024/01/22 03:27:33;;;;;;;;;;;;;;;;;;2097945;28;19931;-83
2024/01/22 03:28:54;;;;;;;;;;;;;;;;;;2090818;28;19920;-85
2024/01/22 03:30:15;;;;;;;;;;;;;;;;;;2091387;28;19921;-83
2024/01/22 03:31:37;;;;;;;;;;;;;;;;;;2090345;28;20000;-85
2024/01/22 03:32:58;;;;;;;;;;;;;;;;;;2089498;28;19921;-85
2024/01/22 03:34:19;;;;;;;;;;;;;;;;;;2089134;28;19932;-85
2024/01/22 03:35:39;;;;;;;;;;;;;;;;;;2094343;28;19923;-85
2024/01/22 03:37:00;;;;;;;;;;;;;;;;;;2095225;28;19909;-83
2024/01/22 03:38:21;;;;;;;;;;;;;;;;;;2086650;28;19913;-85
2024/01/22 03:39:41;;;;;;;;;;;;;;;;;;2091232;28;20292;-83
2024/01/22 03:41:02;;;;;;;;;;;;;;;;;;2102185;28;19915;-85
2024/01/22 03:42:23;;;;;;;;;;;;;;;;;;2091803;28;19946;-85
2024/01/22 03:43:44;;;;;;;;;;;;;;;;;;2092951;28;20284;-82
2024/01/22 03:45:04;;;;;;;;;;;;;;;;;;2099547;28;19908;-84
2024/01/22 03:46:25;;;;;;;;;;;;;;;;;;2095241;28;20136;-85
2024/01/22 03:47:46;;;;;;;;;;;;;;;;;;2094015;28;19920;-85
2024/01/22 03:49:07;;;;;;;;;;;;;;;;;;2089564;28;19913;-83
2024/01/22 03:50:27;;;;;;;;;;;;;;;;;;2094197;28;19908;-86
2024/01/22 03:51:48;;;;;;;;;;;;;;;;;;2094075;28;19908;-84
2024/01/22 03:53:09;;;;;;;;;;;;;;;;;;2093693;28;19909;-85
2024/01/22 03:54:29;;;;;;;;;;;;;;;;;;2088257;28;19983;-86
2024/01/22 03:55:50;;;;;;;;;;;;;;;;;;2100529;28;19965;-86
2024/01/22 03:57:11;;;;;;;;;;;;;;;;;;2093254;28;20012;-85
2024/01/22 03:58:32;;;;;;;;;;;;;;;;;;2090731;28;19958;-84
2024/01/22 03:59:53;;;;;;;;;;;;;;;;;;2095001;28;20421;-84
2024/01/22 04:01:14;;;;;;;;;;;;;;;;;;2101117;28;20273;-85
2024/01/22 04:02:34;;;;;;;;;;;;;;;;;;2095491;28;19912;-84
2024/01/22 04:03:55;;;;;;;;;;;;;;;;;;2102964;28;19916;-84
2024/01/22 04:05:16;;;;;;;;;;;;;;;;;;2096543;28;19919;-83
2024/01/22 04:06:36;;;;;;;;;;;;;;;;;;2103516;28;19913;-85
2024/01/22 04:07:57;;;;;;;;;;;;;;;;;;2105463;28;20308;-86
2024/01/22 04:09:18;;;;;;;;;;;;;;;;;;2103559;28;19912;-85
2024/01/22 04:10:38;;;;;;;;;;;;;;;;;;2098363;28;19973;-84
2024/01/22 04:11:59;;;;;;;;;;;;;;;;;;2093269;28;19928;-81
2024/01/22 04:13:21;;;;;;;;;;;;;;;;;;2102716;28;20300;-86
2024/01/22 04:14:41;;;;;;;;;;;;;;;;;;2105969;28;19923;-85
2024/01/22 04:16:02;;;;;;;;;;;;;;;;;;2095739;28;19908;-84
2024/01/22 04:17:23;;;;;;;;;;;;;;;;;;2093429;28;20465;-85
2024/01/22 04:18:43;;;;;;;;;;;;;;;;;;2102742;28;19912;-85
2024/01/22 04:20:04;;;;;;;;;;;;;;;;;;2097724;28;19908;-84
2024/01/22 04:21:25;;;;;;;;;;;;;;;;;;2098101;28;19953;-86
2024/01/22 04:22:45;;;;;;;;;;;;;;;;;;2094927;28;19928;-85
2024/01/22 04:24:07;;;;;;;;;;;;;;;;;;2095285;28;19920;-84
2024/01/22 04:25:28;;;;;;;;;;;;;;;;;;2101733;28;19946;-84
2024/01/22 04:26:49;;;;;;;;;;;;;;;;;;2089183;28;19909;-85
2024/01/22 04:28:10;;;;;;;;;;;;;;;;;;2091935;28;20387;-87
2024/01/22 04:29:30;;;;;;;;;;;;;;;;;;2098369;28;20375;-85
2024/01/22 04:30:51;;;;;;;;;;;;;;;;;;2095655;28;19944;-84
2024/01/22 04:32:12;;;;;;;;;;;;;;;;;;2085793;28;19999;-86
2024/01/22 04:33:32;;;;;;;;;;;;;;;;;;2088082;28;19912;-85
2024/01/22 04:34:54;;;;;;;;;;;;;;;;;;2094268;28;19966;-84
2024/01/22 04:36:15;;;;;;;;;;;;;;;;;;2102201;28;19923;-85
2024/01/22 04:37:36;;;;;;;;;;;;;;;;;;2105998;28;19908;-84
2024/01/22 04:38:56;;;;;;;;;;;;;;;;;;2102783;28;19938;-85
2024/01/22 04:40:17;;;;;;;;;;;;;;;;;;2099022;28;20276;-84
2024/01/22 04:41:38;;;;;;;;;;;;;;;;;;2094556;28;19909;-82
2024/01/22 04:42:59;;;;;;;;;;;;;;;;;;2094372;28;19908;-83
2024/01/22 04:44:19;;;;;;;;;;;;;;;;;;2089843;28;19924;-82
2024/01/22 04:45:40;;;;;;;;;;;;;;;;;;2089468;28;19928;-84
2024/01/22 04:47:01;;;;;;;;;;;;;;;;;;2087975;28;19916;-84
2024/01/22 04:48:22;;;;;;;;;;;;;;;;;;2088135;28;19908;-85
2024/01/22 04:49:43;;;;;;;;;;;;;;;;;;2095558;28;19946;-82
2024/01/22 04:51:03;;;;;;;;;;;;;;;;;;2097580;28;20348;-85
2024/01/22 04:52:24;;;;;;;;;;;;;;;;;;2093690;28;19996;-85
2024/01/22 04:53:45;;;;;;;;;;;;;;;;;;2102307;28;19965;-83
2024/01/22 04:55:05;;;;;;;;;;;;;;;;;;2099361;28;19913;-83
2024/01/22 04:56:26;;;;;;;;;;;;;;;;;;2106215;28;19909;-87
2024/01/22 04:57:47;;;;;;;;;;;;;;;;;;2097721;28;19908;-85
2024/01/22 04:59:07;;;;;;;;;;;;;;;;;;2092364;28;19920;-86
2024/01/22 05:00:28;;;;;;;;;;;;;;;;;;2087992;28;19916;-84
2024/01/22 05:01:49;;;;;;;;;;;;;;;;;;2086502;28;19913;-85
2024/01/22 05:03:09;;;;;;;;;;;;;;;;;;2096097;28;19913;-85
2024/01/22 05:04:30;;;;;;;;;;;;;;;;;;2096335;28;20382;-84
2024/01/22 05:05:51;;;;;;;;;;;;;;;;;;2105587;28;19912;-84
2024/01/22 05:07:11;;;;;;;;;;;;;;;;;;2097718;28;19913;-86
2024/01/22 05:08:32;;;;;;;;;;;;;;;;;;2094146;28;19955;-83
2024/01/22 05:09:53;;;;;;;;;;;;;;;;;;2092160;28;19913;-84
2024/01/22 05:11:14;;;;;;;;;;;;;;;;;;2098529;28;20325;-85
2024/01/22 05:12:34;;;;;;;;;;;;;;;;;;2095019;28;19962;-85
2024/01/22 05:13:55;;;;;;;;;;;;;;;;;;2105274;28;19939;-84
2024/01/22 05:15:16;;;;;;;;;;;;;;;;;;2101572;28;20370;-84
2024/01/22 05:16:36;;;;;;;;;;;;;;;;;;2093089;28;20244;-85
2024/01/22 05:17:57;;;;;;;;;;;;;;;;;;2087160;28;19909;-85
2024/01/22 05:19:18;;;;;;;;;;;;;;;;;;2092246;28;19975;-86
2024/01/22 05:20:38;;;;;;;;;;;;;;;;;;2092069;28;20410;-84
2024/01/22 05:21:59;;;;;;;;;;;;;;;;;;2103825;28;19908;-86
2024/01/22 05:23:20;;;;;;;;;;;;;;;;;;2093727;28;19921;-86
2024/01/22 05:24:41;;;;;;;;;;;;;;;;;;2097988;28;20011;-87
2024/01/22 05:26:01;;;;;;;;;;;;;;;;;;2098463;28;19909;-82
2024/01/22 05:27:22;;;;;;;;;;;;;;;;;;2101911;28;19920;-86
2024/01/22 05:28:43;;;;;;;;;;;;;;;;;;2103961;28;19908;-85
2024/01/22 05:30:04;;;;;;;;;;;;;;;;;;2091518;28;20144;-85
2024/01/22 05:31:25;;;;;;;;;;;;;;;;;;2092293;28;19913;-82
2024/01/22 05:32:46;;;;;;;;;;;;;;;;;;2102918;28;19964;-85
2024/01/22 05:34:06;;;;;;;;;;;;;;;;;;2094780;28;20349;-84
2024/01/22 05:35:27;;;;;;;;;;;;;;;;;;2092490;28;19912;-85
2024/01/22 05:36:48;;;;;;;;;;;;;;;;;;2093236;28;20383;-85
2024/01/22 05:38:08;;;;;;;;;;;;;;;;;;2097562;28;19920;-86
2024/01/22 05:39:29;;;;;;;;;;;;;;;;;;2092784;28;19959;-85
2024/01/22 05:40:50;;;;;;;;;;;;;;;;;;2098272;28;20328;-86
2024/01/22 05:42:10;;;;;;;;;;;;;;;;;;2105955;28;19918;-81
2024/01/22 05:43:31;;;;;;;;;;;;;;;;;;2103339;28;19964;-86
2024/01/22 05:44:52;;;;;;;;;;;;;;;;;;2092581;28;20331;-85
2024/01/22 05:46:13;;;;;;;;;;;;;;;;;;2094859;28;19912;-85
2024/01/22 05:47:33;;;;;;;;;;;;;;;;;;2096150;28;20139;-85
2024/01/22 05:48:54;;;;;;;;;;;;;;;;;;2099624;28;19998;-84
2024/01/22 05:50:15;;;;;;;;;;;;;;;;;;2098313;28;19924;-86
2024/01/22 05:51:36;;;;;;;;;;;;;;;;;;2096749;28;20445;-85
2024/01/22 05:52:57;;;;;;;;;;;;;;;;;;2101359;28;19919;-85
2024/01/22 05:54:18;;;;;;;;;;;;;;;;;;2096511;28;20465;-86
2024/01/22 05:55:39;;;;;;;;;;;;;;;;;;2097888;28;19912;-86
2024/01/22 05:57:00;;;;;;;;;;;;;;;;;;2105625;28;19919;-86
2024/01/22 05:58:22;;;;;;;;;;;;;;;;;;2089487;28;19909;-86
2024/01/22 05:59:43;;;;;;;;;;;;;;;;;;2091167;28;19912;-85
2024/01/22 06:01:04;;;;;;;;;;;;;;;;;;2093782;28;19936;-85
2024/01/22 06:02:25;;;;;;;;;;;;;;;;;;2101960;28;19916;-85
2024/01/22 06:03:46;;;;;;;;;;;;;;;;;;2094350;28;19912;-83
2024/01/22 06:05:07;;;;;;;;;;;;;;;;;;2103624;28;19923;-85
2024/01/22 06:06:27;;;;;;;;;;;;;;;;;;2095179;28;20304;-85
2024/01/22 06:07:48;;;;;;;;;;;;;;;;;;2096721;28;19987;-85
2024/01/22 06:09:09;;;;;;;;;;;;;;;;;;2097560;28;19931;-85
2024/01/22 06:10:29;;;;;;;;;;;;;;;;;;2093430;28;19920;-85
2024/01/22 06:11:50;;;;;;;;;;;;;;;;;;2093956;28;20465;-85
2024/01/22 06:13:11;;;;;;;;;;;;;;;;;;2098583;28;19916;-85
2024/01/22 06:14:32;;;;;;;;;;;;;;;;;;2084843;28;19924;-85
2024/01/22 06:15:52;;;;;;;;;;;;;;;;;;2095230;28;19974;-85
2024/01/22 06:17:14;;;;;;;;;;;;;;;;;;2102135;28;19912;-84
2024/01/22 06:18:34;;;;;;;;;;;;;;;;;;2096841;28;19919;-84
2024/01/22 06:19:57;;;;;;;;;;;;;;;;;;2093710;28;19915;-85
2024/01/22 06:21:17;;;;;;;;;;;;;;;;;;2094651;28;20346;-85
2024/01/22 06:22:38;;;;;;;;;;;;;;;;;;2090779;28;19966;-83
2024/01/22 06:23:59;;;;;;;;;;;;;;;;;;2095672;28;19925;-87
2024/01/22 06:25:20;;;;;;;;;;;;;;;;;;2097079;28;19961;-87
2024/01/22 06:26:40;;;;;;;;;;;;;;;;;;2092917;28;19908;-88
2024/01/22 06:28:02;;;;;;;;;;;;;;;;;;2088331;28;20359;-88
2024/01/22 06:29:23;;;;;;;;;;;;;;;;;;2090665;28;19920;-84
2024/01/22 06:30:44;;;;;;;;;;;;;;;;;;2092081;28;19916;-82
2024/01/22 06:32:07;;;;;;;;;;;;;;;;;;2095199;28;19916;-83
2024/01/22 06:33:28;;;;;;;;;;;;;;;;;;2104469;28;19912;-85
2024/01/22 06:34:49;;;;;;;;;;;;;;;;;;2095881;28;19913;-84
2024/01/22 06:36:09;;;;;;;;;;;;;;;;;;2097490;28;19974;-84
2024/01/22 06:37:30;;;;;;;;;;;;;;;;;;2101524;28;19916;-83
2024/01/22 06:38:51;;;;;;;;;;;;;;;;;;2105294;28;19923;-84
2024/01/22 06:40:11;;;;;;;;;;;;;;;;;;2092544;28;19958;-84
2024/01/22 06:41:32;;;;;;;;;;;;;;;;;;2088871;28;19909;-82
2024/01/22 06:42:53;;;;;;;;;;;;;;;;;;2088318;28;20387;-86
2024/01/22 06:44:14;;;;;;;;;;;;;;;;;;2099993;28;20521;-81
2024/01/22 06:45:34;;;;;;;;;;;;;;;;;;2095432;28;19920;-82
2024/01/22 06:46:55;;;;;;;;;;;;;;;;;;2092273;28;19971;-83
2024/01/22 06:48:16;;;;;;;;;;;;;;;;;;2094586;28;19912;-82
2024/01/22 06:49:36;;;;;;;;;;;;;;;;;;2089779;28;19920;-86
2024/01/22 06:50:57;;;;;;;;;;;;;;;;;;2090801;28;19913;-86
2024/01/22 06:52:18;;;;;;;;;;;;;;;;;;2093256;28;20364;-86
2024/01/22 06:53:39;;;;;;;;;;;;;;;;;;2089489;28;20360;-90
2024/01/22 06:55:00;;;;;;;;;;;;;;;;;;2090937;28;19943;-84
2024/01/22 06:56:20;;;;;;;;;;;;;;;;;;2093646;28;19913;-83
2024/01/22 06:57:41;;;;;;;;;;;;;;;;;;2090649;28;19909;-84
2024/01/22 06:59:03;;;;;;;;;;;;;;;;;;2091307;28;19935;-84
2024/01/22 07:00:24;;;;;;;;;;;;;;;;;;2097417;28;19913;-84
2024/01/22 07:01:44;;;;;;;;;;;;;;;;;;2096971;28;19932;-83
2024/01/22 07:03:05;;;;;;;;;;;;;;;;;;2097788;28;19916;-86
2024/01/22 07:04:26;;;;;;;;;;;;;;;;;;2099029;28;19958;-84
2024/01/22 07:05:46;;;;;;;;;;;;;;;;;;2098660;28;19919;-84
2024/01/22 07:07:07;;;;;;;;;;;;;;;;;;2091730;28;20482;-84
2024/01/22 07:08:28;;;;;;;;;;;;;;;;;;2091043;28;19913;-88
2024/01/22 07:09:49;;;;;;;;;;;;;;;;;;2094803;28;19920;-84
2024/01/22 07:11:10;;;;;;;;;;;;;;;;;;2095480;28;19997;-87
2024/01/22 07:12:30;;;;;;;;;;;;;;;;;;2095296;28;20372;-86
2024/01/22 07:13:52;;;;;;;;;;;;;;;;;;2094411;28;19913;-84
2024/01/22 07:15:13;;;;;;;;;;;;;;;;;;2091129;28;20364;-85
2024/01/22 07:16:33;;;;;;;;;;;;;;;;;;2091013;28;20042;-86
2024/01/22 07:17:54;;;;;;;;;;;;;;;;;;2091630;28;19916;-86
2024/01/22 07:19:15;;;;;;;;;;;;;;;;;;2095137;28;19975;-85
2024/01/22 07:20:36;;;;;;;;;;;;;;;;;;2102021;28;19912;-86
2024/01/22 07:21:56;;;;;;;;;;;;;;;;;;2098766;28;19920;-85
2024/01/22 07:23:17;;;;;;;;;;;;;;;;;;2097174;28;19909;-85
2024/01/22 07:24:38;;;;;;;;;;;;;;;;;;2089577;28;19936;-83
2024/01/22 07:25:59;;;;;;;;;;;;;;;;;;2092313;28;19909;-83
2024/01/22 07:27:19;;;;;;;;;;;;;;;;;;2093169;28;19987;-82
2024/01/22 07:28:40;;;;;;;;;;;;;;;;;;2093432;28;19916;-80
2024/01/22 07:30:03;;;;;;;;;;;;;;;;;;2091812;28;19924;-83
2024/01/22 07:31:24;;;;;;;;;;;;;;;;;;2094043;28;20350;-79
2024/01/22 07:32:45;;;;;;;;;;;;;;;;;;2098081;28;19916;-81
2024/01/22 07:34:06;;;;;;;;;;;;;;;;;;2102813;28;19912;-79
2024/01/22 07:35:26;;;;;;;;;;;;;;;;;;2092760;28;19932;-82
2024/01/22 07:36:47;;;;;;;;;;;;;;;;;;2100818;28;19919;-82
2024/01/22 07:38:08;;;;;;;;;;;;;;;;;;2093687;28;19949;-82
2024/01/22 07:39:28;;;;;;;;;;;;;;;;;;2091836;28;20340;-81
2024/01/22 07:40:49;;;;;;;;;;;;;;;;;;2090736;28;20124;-81
2024/01/22 07:42:10;;;;;;;;;;;;;;;;;;2093629;28;19925;-81
2024/01/22 07:43:30;;;;;;;;;;;;;;;;;;2090536;28;20346;-81
2024/01/22 07:44:51;;;;;;;;;;;;;;;;;;2092380;28;19925;-80
2024/01/22 07:46:12;;;;;;;;;;;;;;;;;;2089375;28;19912;-78
2024/01/22 07:47:33;;;;;;;;;;;;;;;;;;2086655;28;19913;-77
2024/01/22 07:48:53;;;;;;;;;;;;;;;;;;2096947;28;20346;-77
2024/01/22 07:50:14;;;;;;;;;;;;;;;;;;2103744;28;19919;-78
2024/01/22 07:51:35;;;;;;;;;;;;;;;;;;2095051;28;19908;-77
2024/01/22 07:52:56;;;;;;;;;;;;;;;;;;2094076;28;19912;-79
2024/01/22 07:54:17;;;;;;;;;;;;;;;;;;2093906;28;19909;-78
2024/01/22 07:55:37;;;;;;;;;;;;;;;;;;2092224;28;20252;-76
2024/01/22 07:56:58;;;;;;;;;;;;;;;;;;2101542;28;19908;-78
2024/01/22 07:58:19;;;;;;;;;;;;;;;;;;2095037;28;20395;-78
2024/01/22 07:59:40;;;;;;;;;;;;;;;;;;2091341;28;19912;-78
2024/01/22 08:01:00;;;;;;;;;;;;;;;;;;2101995;28;19908;-78
2024/01/22 08:02:21;;;;;;;;;;;;;;;;;;2103876;28;19920;-77
2024/01/22 08:03:42;;;;;;;;;;;;;;;;;;2104050;28;19909;-78
2024/01/22 08:05:02;;;;;;;;;;;;;;;;;;2084968;28;19998;-77
2024/01/22 08:06:23;;;;;;;;;;;;;;;;;;2083810;28;19916;-76
2024/01/22 08:07:44;;;;;;;;;;;;;;;;;;2093186;28;20319;-78
2024/01/22 08:09:05;;;;;;;;;;;;;;;;;;2088253;28;20210;-78
2024/01/22 08:10:25;;;;;;;;;;;;;;;;;;2099635;28;19920;-77
2024/01/22 08:11:47;;;;;;;;;;;;;;;;;;2096712;28;19908;-78
2024/01/22 08:13:08;;;;;;;;;;;;;;;;;;2097574;28;20395;-78
2024/01/22 08:14:29;;;;;;;;;;;;;;;;;;2096561;28;20001;-78
2024/01/22 08:15:50;;;;;;;;;;;;;;;;;;2094760;28;20049;-78
2024/01/22 08:17:10;;;;;;;;;;;;;;;;;;2085997;28;19928;-78
2024/01/22 08:18:31;;;;;;;;;;;;;;;;;;2095209;28;19909;-78
2024/01/22 08:19:52;;;;;;;;;;;;;;;;;;2097453;28;19909;-78
2024/01/22 08:21:12;;;;;;;;;;;;;;;;;;2088939;28;19909;-78
2024/01/22 08:22:33;;;;;;;;;;;;;;;;;;2096978;28;19913;-78
2024/01/22 08:23:54;;;;;;;;;;;;;;;;;;2101798;28;19923;-78
2024/01/22 08:25:19;;;;;;;;;;;;;;;;;;2089453;28;19991;-78
2024/01/22 08:26:39;;;;;;;;;;;;;;;;;;2090369;28;19928;-78
2024/01/22 08:28:00;;;;;;;;;;;;;;;;;;2093664;28;20265;-78
2024/01/22 08:29:21;;;;;;;;;;;;;;;;;;2091301;28;19916;-78
2024/01/22 08:30:42;;;;;;;;;;;;;;;;;;2093965;28;19919;-79
2024/01/22 08:32:02;;;;;;;;;;;;;;;;;;2094760;28;19920;-77
2024/01/22 08:33:23;;;;;;;;;;;;;;;;;;2088689;28;20277;-78
2024/01/22 08:34:44;;;;;;;;;;;;;;;;;;2090053;28;19917;-78
2024/01/22 08:36:04;;;;;;;;;;;;;;;;;;2097801;28;20018;-79
2024/01/22 08:37:25;;;;;;;;;;;;;;;;;;2092727;28;19927;-79
2024/01/22 08:38:46;;;;;;;;;;;;;;;;;;2099004;28;20325;-79
2024/01/22 08:40:06;;;;;;;;;;;;;;;;;;2102787;28;20014;-79
2024/01/22 08:41:27;;;;;;;;;;;;;;;;;;2094137;28;19913;-78
2024/01/22 08:42:49;;;;;;;;;;;;;;;;;;2102196;28;19923;-79
2024/01/22 08:44:10;;;;;;;;;;;;;;;;;;2101566;28;20147;-79
2024/01/22 08:45:30;;;;;;;;;;;;;;;;;;2095727;28;19963;-79
2024/01/22 08:46:51;;;;;;;;;;;;;;;;;;2096884;28;20205;-80
2024/01/22 08:48:12;;;;;;;;;;;;;;;;;;2102647;28;19977;-79
2024/01/22 08:49:32;;;;;;;;;;;;;;;;;;2098102;28;19924;-80
2024/01/22 08:50:53;;;;;;;;;;;;;;;;;;2097964;28;20232;-80
2024/01/22 08:52:14;;;;;;;;;;;;;;;;;;2097538;28;20292;-80
2024/01/22 08:53:34;;;;;;;;;;;;;;;;;;2094363;28;19924;-79
2024/01/22 08:54:55;;;;;;;;;;;;;;;;;;2084985;28;19913;-79
2024/01/22 08:56:16;;;;;;;;;;;;;;;;;;2095873;28;19924;-80
2024/01/22 08:57:36;;;;;;;;;;;;;;;;;;2090057;28;19935;-79
2024/01/22 08:58:57;;;;;;;;;;;;;;;;;;2092569;28;20276;-79
2024/01/22 09:00:19;;;;;;;;;;;;;;;;;;2094664;28;19913;-79
2024/01/22 09:01:39;;;;;;;;;;;;;;;;;;2103657;28;19965;-80
2024/01/22 09:03:00;;;;;;;;;;;;;;;;;;2097071;28;19909;-80
2024/01/22 09:04:21;;;;;;;;;;;;;;;;;;2102797;28;19988;-79
2024/01/22 09:05:42;;;;;;;;;;;;;;;;;;2096130;28;20375;-80
2024/01/22 09:07:02;;;;;;;;;;;;;;;;;;2094718;28;19908;-80
2024/01/22 09:08:23;;;;;;;;;;;;;;;;;;2095235;28;19909;-81
2024/01/22 09:09:44;;;;;;;;;;;;;;;;;;2093333;28;20473;-80
2024/01/22 09:11:04;;;;;;;;;;;;;;;;;;2092472;28;19950;-78